Preview of NWS' New Version of Forecast
This preview is not operational and should not be used for support decisions.
Latest weather observations around

Boyd Deep Canyon Reserve (UCNRS) (UCDE)

Using International System of Units (Switch to English Units)
Date/ Time (PDT) Wind (kph) Vis. (km) Weather Sky Cond. Temp (°C) Rel. Humidity Wind Chill (°C) Heat Index (°C) Pressure Precip. (cm)
Air Dwpt 6 hour Altimeter (hPa) Sea level (hPa) 1 hr 3 hr 6 hr
Max Min
Aug 21 04:10 NW 1   Clear   27 4     23%   26 1008.95        
Aug 21 04:00 NE 2   Clear   27 5     25%   26 1008.95        
Aug 21 03:50 WSW 2   Clear   27 6     27%   26 1008.95        
Aug 21 03:40 NE 1   Clear   27 7     28%   26 1009.05        
Aug 21 03:30 NE 1   Clear   27 7     29%   26 1009.05        
Aug 21 03:20 E 1   Clear   27 7     28%   27 1009.15        
Aug 21 03:10 E 2   Clear   28 7     27%   27 1009.15        
Aug 21 03:00 E 4   Clear   28 7     26%   27 1009.15        
Notice The following observation data may not be complete
Aug 21 02:50     Clear            %              
Aug 21 02:40 NE 4   Clear   29 1     17%   27 1009.05        
Aug 21 02:30 NE 3   Clear   29 2     17%   27 1009.05        
Aug 21 02:20 ENE 2   Clear   29 3     19%   27 1009.15        
Aug 21 02:10 E 4   Clear   29 4     21%   27 1009.15        
Aug 21 02:00 NE 2   Clear   28 6     24%   27 1009.15        
Aug 21 01:50 N 3   Clear   28 7     26%   27 1009.15        
Aug 21 01:40 N 2   Clear   28 7     27%   27 1009.26        
Aug 21 01:30 E 3   Clear   29 7     26%   27 1009.36        
Aug 21 01:20 E 5   Clear   30 8     26%   28 1009.36        
Aug 21 01:10 ESE 6   Clear   29 8     26%   28 1009.46        
Aug 21 01:00 ENE 4   Clear   29 7     26%   27 1009.46        
Aug 21 00:50 E 3   Clear   29 8     26%   28 1009.56        
Aug 21 00:40 E 4   Clear   29 8     26%   28 1009.67        
Aug 21 00:30 ENE 5   Clear   29 8     27%   28 1009.67        
Aug 21 00:20 ENE 4   Clear   30 8     26%   28 1009.56        
Aug 21 00:10 ESE 4   Clear   30 8     26%   28 1009.77        
Aug 21 00:00 E 5   Clear   30 8     25%   29 1009.87        
Aug 20 23:50 ENE 7   Clear   32 6     20%   30 1009.77        
Notice The following observation data may not be complete
Aug 20 23:40 SSW 13   Clear            %     1009.56        
Notice The following observation data may not be complete
Aug 20 23:30 SSW 20   Clear            %     1009.46        
Aug 20 23:20 SSW 19   Clear   36        %     1009.56        
Aug 20 23:10 SSW 10   Clear   33 0     12%   31 1009.56        
Aug 20 23:00 NE 3   Clear   32 4     17%   30 1009.67        
Aug 20 22:50 NE 2   Clear   32 4     17%   30 1009.67        
Aug 20 22:40 E 2   Clear   32 4     17%   30 1009.67        
Aug 20 22:30 S 1   Clear   32 3     16%   30 1009.67        
Aug 20 22:20 ENE 2   Clear   33 3     15%   31 1009.67        
Aug 20 22:10 E 3   Clear   33 3     15%   31 1009.56        
Aug 20 22:00 ENE 4   Clear   34 3     14%   31 1009.56        
Aug 20 21:50 NE 4   Clear   35 2     13%   32 1009.46        
Aug 20 21:40 N 3   Clear   35 1     12%   32 1009.46        
Aug 20 21:30 SW 7   Clear   36 1     11%   33 1009.36        
Aug 20 21:20 SSW 17   Clear   36 1     11%   33 1009.15        
Aug 20 21:10 SSW 17   Clear   36 1     11%   33 1009.15        
Aug 20 21:00 SSW 17   Clear   36 1     11%   33 1008.95        
Aug 20 20:50 SSW 18   Clear   36 2     12%   34 1008.95        
Aug 20 20:40 SSW 16   Clear   36 4     13%   34 1008.95        
Aug 20 20:30 SSW 16   Clear   36 4     13%   34 1008.84        
Aug 20 20:20 SSW 19   Clear   37 4     13%   34 1008.84        
Aug 20 20:10 SSW 19   Clear   37 3     12%   34 1008.84        
Aug 20 20:00 SSW 14   Clear   37 3     12%   34 1008.84        
Aug 20 19:50 SSW 11   Clear   38 2     11%   34 1008.84        
Aug 20 19:40 SSW 11   Clear   38 2     11%   35 1008.74        
Aug 20 19:30 SSW 12   Clear   38 1     10%   35 1008.64        
Aug 20 19:20 SSW 13   Clear   39 2     10%   35 1008.64        
Aug 20 19:10 SW 12   Clear   39 0     9%   35 1008.64        
Aug 20 19:00 SW 7   Clear   39 -1     8%   36 1008.53        
Aug 20 18:50 WSW 3   Clear   39 -1     8%   36 1008.53        
Aug 20 18:40 NNE 5   Clear   40 -1     8%   36 1008.53        
Aug 20 18:30 N 7   Clear   40 -1     8%   36 1008.64        
Aug 20 18:20 N 6   Clear   41 -1     7%   37 1008.64        
Aug 20 18:10 NNE 9   Clear   42 -1     7%   38 1008.74        
Aug 20 18:00 NNE 8   Clear   42 -1     7%   38 1008.74        
Aug 20 17:50 NNE 9   Clear   42 -1     7%   38 1008.84        
Aug 20 17:40 N 8   Clear   42 -1     7%   38 1008.84        
Aug 20 17:30 NNE 8   Clear   42 -1     7%   38 1008.84        
Aug 20 17:20 NNE 10   Clear   42 -1     7%   38 1008.84        
Aug 20 17:10 N 8   Clear   42 -3     6%   38 1008.84        
Aug 20 17:00 NNE 10   Clear   42 -3     6%   38 1008.84        
Aug 20 16:50 NNE 10   Clear   42 -3     6%   38 1008.95        
Aug 20 16:40 NNE 8   Clear   42 -3     6%   38 1009.05        
Aug 20 16:30 NNE 11   Clear   42 -3     6%   38 1009.05        
Aug 20 16:20 NNE 10   Clear   42 -3     6%   38 1009.15        
Aug 20 16:10 NNE 9   Clear   42 -3     6%   38 1009.26        
Aug 20 16:00 NNE 9   Clear   42 -3     6%   38 1009.36        
Aug 20 15:50 NNE 9   Clear   42 -3     6%   38 1009.36        
Aug 20 15:40 N 8   Clear   42 -3     6%   38 1009.46        
Aug 20 15:30 NE 10   Clear   42 -3     6%   37 1009.46        
Aug 20 15:20 NNE 10   Clear   42 -3     6%   37 1009.67        
Aug 20 15:10 NNE 11   Clear   42 -3     6%   37 1009.77        
Aug 20 15:00 NNE 12   Clear   42 -3     6%   37 1009.87        
Aug 20 14:50 N 12   Clear   42 -3     6%   37 1010.08        
Aug 20 14:40 N 12   Clear   42 -3     6%   37 1010.18        
Aug 20 14:30 NNE 10   Clear   42 -3     6%   37 1010.18        
Aug 20 14:20 NNE 12   Clear   42 -3     6%   37 1010.39        
Aug 20 14:10 NNE 9   Clear   42 -3     6%   37 1010.49        
Aug 20 14:00 NNE 10   Clear   41 -4     6%   37 1010.59        
Notice The following observation data may not be complete
Aug 20 13:50     Clear            %              
Aug 20 13:40 NE 9   Clear   41 -4     6%   37 1010.8        
Aug 20 13:30 NNE 7   Clear   41 -4     6%   36 1010.9        
Aug 20 13:20 NNE 7   Clear   40 -2     7%   36 1011        
Aug 20 13:10 NNE 8   Clear   40 -2     7%   36 1011.21        
Aug 20 13:00 NNE 8   Clear   40 -2     7%   36 1011.31        
Aug 20 12:50 NNE 8   Clear   40 -2     7%   36 1011.42        
Aug 20 12:40 N 9   Clear   40 -2     7%   36 1011.52        
Aug 20 12:30 NNE 8   Clear   40 -1     8%   36 1011.62        
Aug 20 12:20 NNE 7   Clear   40 -1     8%   36 1011.83        
Aug 20 12:10 NNE 10   Clear   40 -1     8%   36 1011.83        
Aug 20 12:00 N 9   Clear   39 -1     8%   36 1011.93        
Aug 20 11:50 N 8   Clear   39 -1     8%   35 1012.14        
Aug 20 11:40 NNE 8   Clear   39 -1     8%   35 1012.24        
Aug 20 11:30 NNE 6   Clear   39 0     9%   35 1012.34        
Aug 20 11:20 NNE 7   Clear   38 0     9%   35 1012.34        
Aug 20 11:10 N 8   Clear   38 0     9%   35 1012.45        
Aug 20 11:00 N 7   Clear   38 0     9%   35 1012.55        
Aug 20 10:20 NNE 5   Clear   37 0     10%   33 1012.65        
Aug 20 10:10 NNE 6   Clear   37 0     10%   33 1012.55        
Aug 20 10:00 NE 3   Clear   37 0     10%   34 1012.55        
Notice The following observation data may not be complete
Aug 20 09:50     Clear            %              
Aug 20 09:40 NE 4   Clear   36 1     11%   33 1012.55        
Aug 20 09:30 NE 4   Clear   35 1     12%   32 1012.45        
Aug 20 09:20 NE 3   Clear   34 2     13%   32 1012.45        
Aug 20 09:10 NE 3   Clear   34 2     14%   31 1012.45        
Aug 20 09:00 NNE 7   Clear   33 2     14%   31 1012.45        
Notice The following observation data may not be complete
Aug 20 08:50     Clear            %              
Aug 20 08:40 NE 4   Clear   34 1     12%   31 1012.34        
Aug 20 08:30 ENE 3   Clear   35 2     13%   32 1012.24        
Aug 20 08:20 NE 1   Clear   34 2     13%   32 1012.24        
Aug 20 08:10 NE 2   Clear   34 2     14%   31 1012.24        
Aug 20 08:00 NE 1   Clear   33 2     14%   31 1012.24        
Aug 20 07:50 ENE 3   Clear   32 3     16%   30 1012.24        
Aug 20 07:40 SSW 3   Clear   32 3     16%   30 1012.14        
Aug 20 07:30 SW 4   Clear   31 3     17%   29 1012.14        
Aug 20 07:20 SSW 2   Clear   29 3     19%   28 1012.14        
Aug 20 07:10 NNW 1   Clear   26 4     24%   25 1012.03        
Aug 20 07:00 SSW 4   Clear   26 4     25%   25 1011.93        
Aug 20 06:50 SW 4   Clear   26 4     24%   25 1011.83        
Aug 20 06:40 SW 5   Clear   25 4     26%   25 1011.83        
Aug 20 06:30 SW 3   Clear   26 4     25%   25 1011.83        
Aug 20 06:20 ESE 2   Clear   26 4     24%   25 1011.73        
Aug 20 06:10 ENE 4   Clear   26 3     22%   25 1011.62        
Aug 20 06:00 E 6   Clear   27 2     19%   26 1011.42        
Aug 20 05:50 ENE 4   Clear   28 1     18%   26 1011.31        
Aug 20 05:40 SW 2   Clear   26 2     21%   25 1011.31        
Aug 20 05:30 NNE 2   Clear   26 2     21%   26 1011.31        
Aug 20 05:20 ENE 1   Clear   27 3     21%   26 1011.21        
Aug 20 05:10 NNE 3   Clear   27 3     22%   26 1011.21        
Aug 20 05:00 WSW 4   Clear   26 4     23%   26 1011.21        
Aug 20 04:50 SSW 2   Clear   26 4     24%   26 1011.21        
Aug 20 04:40 W 3   Clear   26 5     25%   26 1011.21        
Aug 20 04:30 ENE 3   Clear   27 4     24%   26 1011.21        
Aug 20 04:20 NE 4   Clear   27 5     24%   26 1011.21        
Aug 20 04:10 NNW 3   Clear   27 5     25%   26 1011.11        
Aug 20 04:00 E 4   Clear   27 6     26%   26 1011        
Aug 20 03:50 SSE 3   Clear   27 6     28%   26 1011        
Aug 20 03:40 NNE 2   Clear   26 7     29%   26 1011        
Aug 20 03:30 SW 3   Clear   27 7     28%   26 1011        
Aug 20 03:20 SW 2   Clear   26 7     30%   26 1011.11        
Aug 20 03:10 S 2   Clear   26 8     32%   25 1011.11        
Aug 20 03:00 NNE 2   Clear   26 8     31%   26 1011.11        
Aug 20 02:50 WSW 1   Clear   27 8     31%   26 1011.21        
Aug 20 02:40 S 1   Clear   27 8     31%   26 1011.21        
Aug 20 02:30 ESE 2   Clear   27 9     31%   27 1011.11        
Aug 20 02:20 E 4   Clear   28 8     30%   27 1011        
Aug 20 02:10 E 7   Clear   28 8     29%   27 1010.9        
Aug 20 02:00 ENE 8   Clear   28 8     28%   27 1010.8        
Aug 20 01:50 ENE 4   Clear   28 9     30%   27 1010.7        
Aug 20 01:40 ENE 5   Clear   28 9     30%   27 1010.7        
Aug 20 01:30 E 5   Clear   28 8     29%   27 1010.59        
Aug 20 01:20 ENE 4   Clear   28 8     28%   27 1010.7        
Aug 20 01:10 E 5   Clear   28 8     28%   27 1010.8        
Aug 20 01:00 E 6   Clear   29 7     26%   28 1010.8        
Aug 20 00:50 E 6   Clear   29 6     23%   28 1010.8        
Aug 20 00:40 ENE 4   Clear   30 7     24%   28 1010.9        
Aug 20 00:30 E 5   Clear   30 6     22%   28 1010.9        
Aug 20 00:20 ENE 4   Clear   29 8     26%   28 1010.9        
Aug 20 00:10 E 5   Clear   30 8     26%   28 1011        
Aug 20 00:00 E 6   Clear   30 7     24%   29 1011.11        
Aug 19 23:50 ENE 5   Clear   31 5     19%   29 1011.11        
Aug 19 23:40 SSW 9   Clear   33 -1     11%   30 1011        
Aug 19 23:30 SSW 13   Clear   33        %     1011        
Aug 19 23:20 SSW 17   Clear   34 -4     9%   31 1011        
Aug 19 23:10 SSW 21   Clear   34        %     1010.9        
Aug 19 23:00 SSW 18   Clear   34 -3     9%   31 1010.8        
Aug 19 22:50 SSW 20   Clear   34        %     1010.8        
Aug 19 22:40 SSW 18   Clear   34        %     1010.8        
Aug 19 22:30 SSW 20   Clear   34        %     1010.9        
Aug 19 22:20 SSW 17   Clear   34        %     1010.9        
Aug 19 22:10 SSW 19   Clear   34 -2     10%   31 1010.9        
Aug 19 22:00 SW 14   Clear   34        %     1010.9        
Aug 19 21:50 SW 14   Clear   34 -1     11%   31 1010.9        
Aug 19 21:40 SSW 20   Clear   34 -1     11%   31 1010.9        
Aug 19 21:30     Clear   34 -1     11%   31 1010.8        
Aug 19 21:20 SSW 18   Clear   34 -1     11%   31 1010.7        
Aug 19 21:10 SSW 16   Clear   34 -1     11%   31 1010.49        
Aug 19 21:00 SSW 13   Clear   34 -1     11%   31 1010.39        
Aug 19 20:50 SSW 15   Clear   34 -1     11%   31 1010.39        
Aug 19 20:40 SSW 13   Clear   34 0     11%   31 1010.28        
Aug 19 20:30 SSW 19   Clear   34 0     11%   32 1010.18        
Aug 19 20:20 SSW 20   Clear   34 0     11%   32 1010.08        
Aug 19 20:10 SSW 22   Clear   35 0     11%   32 1009.98        
Aug 19 20:00 SSW 24   Clear   35 0     11%   32 1009.77        
Aug 19 19:50 SSW 21   Clear   35 0     11%   32 1009.77        
Aug 19 19:40     Clear   36 -1     10%   32 1009.77        
Aug 19 19:30 SSW 18   Clear   36 -1     10%   33 1009.77        
Aug 19 19:20 SW 20   Clear   36 -2     9%   33 1009.77        
Aug 19 19:10 SW 26   Clear   37 -1     9%   33 1009.67        
Aug 19 19:00 SW 28   Clear   37 -1     9%   33 1009.56        
Aug 19 18:50 SW 22   Clear   37 -1     9%   34 1009.56        
Aug 19 18:40 SW 18   Clear   38 -1     9%   34 1009.56        
Aug 19 18:30 WSW 10   Clear   38 -2     8%   35 1009.56        
Aug 19 18:20 N 5   Clear   39 -1     8%   36 1009.46        
Aug 19 18:10 ENE 7   Clear   40 1     9%   36 1009.46        
Aug 19 18:00 SE 4   Clear   40 1     9%   36 1009.56        
Aug 19 17:50 ENE 6   Clear   40 1     9%   36 1009.56        
Aug 19 17:40 ENE 4   Clear   40 1     9%   36 1009.67        
Aug 19 17:30 E 5   Clear   40 1     9%   36 1009.77        
Aug 19 17:20 E 8   Clear   40 1     9%   36 1009.77        
Aug 19 17:10 E 6   Clear   40 1     9%   36 1009.87        
Aug 19 17:00 E 10   Clear   39 1     9%   36 1009.87        
Notice The following observation data may not be complete
Aug 19 16:50     Clear            %              
Aug 19 16:40 E 7   Clear   40 1     9%   36 1010.08        
Aug 19 16:30 E 9   Clear   40 1     9%   36 1010.08        
Aug 19 16:20 NNE 8   Clear   40 -1     8%   36 1010.18        
Aug 19 16:10 ENE 9   Clear   40 1     9%   36 1010.18        
Aug 19 16:00 NE 6   Clear   40 1     9%   36 1010.28        
Aug 19 15:50 NE 10   Clear   40 1     9%   36 1010.28        
Aug 19 15:40 ESE 7   Clear   39 2     10%   36 1010.49        
Aug 19 15:30 E 10   Clear   39 2     10%   36 1010.59        
Aug 19 15:20 NE 12   Clear   39 1     9%   36 1010.8        
Aug 19 15:10 ENE 10   Clear   39 2     10%   36 1010.9        
Aug 19 15:00 ENE 9   Clear   39 1     9%   36 1011.11        
Aug 19 14:50 ENE 10   Clear   39 1     9%   36 1011.21        
Aug 19 14:40 E 7   Clear   39 2     10%   36 1011.31        
Aug 19 14:30 ESE 8   Clear   38 1     10%   35 1011.52        
Aug 19 14:20 ESE 8   Clear   39 1     10%   35 1011.62        
Aug 19 14:10 E 9   Clear   38 1     10%   35 1011.73        
Aug 19 14:00 E 7   Clear   38 3     11%   35 1011.83        
Aug 19 13:50 E 8   Clear   38 3     11%   35 1011.93        
Aug 19 13:40 ESE 8   Clear   38 2     11%   35 1012.03        
Aug 19 13:30 ESE 6   Clear   38 2     11%   35 1012.14        
Aug 19 13:20 E 8   Clear   38 2     11%   35 1012.14        
Aug 19 13:10 SE 6   Clear   38 3     11%   35 1012.24        
Aug 19 13:00 ENE 8   Clear   38 2     11%   35 1012.34        
Aug 19 12:50 ENE 8   Clear   37 2     11%   34 1012.45        
Aug 19 12:40 ESE 5   Clear   37 2     11%   34 1012.55        
Aug 19 12:30 SE 6   Clear   37 2     11%   34 1012.65        
Aug 19 12:20 ESE 6   Clear   37 2     11%   34 1012.86        
Aug 19 12:10 ESE 6   Clear   37 2     11%   34 1012.96        
Aug 19 12:00 ESE 5   Clear   37 2     11%   34 1012.96        
Aug 19 11:50 E 9   Clear   36 2     12%   33 1012.96        
Aug 19 11:40 ESE 10   Clear   36 2     12%   33 1013.06        
Aug 19 11:30 E 9   Clear   36 3     13%   33 1013.06        
Aug 19 11:20 E 9   Clear   35 4     14%   33 1013.17        
Aug 19 11:10 E 8   Clear   35 4     14%   33 1013.27        
Aug 19 11:00 ESE 9   Clear   35 4     15%   32 1013.27        
Aug 19 10:50 ENE 9   Clear   35 5     15%   33 1013.37        
Aug 19 10:40 N 8   Clear   35 4     14%   33 1013.27        
Aug 19 10:30 NE 9   Clear   35 5     15%   33 1013.27        
Aug 19 10:20 NE 8   Clear   36 3     13%   33 1013.27        
Aug 19 10:10 ENE 3   Clear   36 3     13%   33 1013.27        
Aug 19 10:00 E 7   Clear   34 3     14%   32 1013.27        
Aug 19 09:50 ESE 7   Clear   34 3     14%   32 1013.17        
Aug 19 09:40 NNE 5   Clear   34 4     15%   32 1013.06        
Aug 19 09:30 NNE 5   Clear   34 4     15%   32 1013.06        
Aug 19 09:20 ENE 4   Clear   33 5     17%   31 1012.96        
Aug 19 09:10 NE 4   Clear   33 7     20%   31 1012.86        
Aug 19 09:00 NNE 4   Clear   32 7     21%   30 1012.86        
Aug 19 08:50 NE 5   Clear   31 7     22%   29 1012.86        
Aug 19 08:40 NE 7   Clear   31 7     22%   30 1012.75        
Aug 19 08:30 NNE 3   Clear   33 6     19%   31 1012.55        
Aug 19 08:20 E 2   Clear   33 7     20%   31 1012.55        
Aug 19 08:10 NE 1   Clear   32 7     21%   30 1012.55        
Aug 19 08:00 SSW 2   Clear   31 8     24%   29 1012.55        
Aug 19 07:50 E 3   Clear   29 8     26%   28 1012.45        
Aug 19 07:40 NE 4   Clear   29 8     26%   28 1012.34        
Aug 19 07:30 E 4   Clear   29 8     27%   28 1012.24        
Aug 19 07:20 SSW 3   Clear   28 8     28%   27 1012.14        
Aug 19 07:10 SW 4   Clear   26 8     33%   25 1012.03        
Aug 19 07:00 E 3   Clear   25 8     34%   25 1012.03        
Aug 19 06:50 ENE 4   Clear   26 8     33%   25 1012.03        
Aug 19 06:40 E 7   Clear   26 8     33%   25 1011.93        
Aug 19 06:30 E 8   Clear   26 8     33%   25 1011.83        
Aug 19 06:20 E 11   Clear   26 8     32%   26 1011.83        
Notice The following observation data may not be complete
Aug 19 06:10 W 14   Clear     2      %     1011.62        
Aug 19 06:00 WSW 11   Clear   28 1     18%   26 1011.52        
Aug 19 05:50 ENE 5   Clear   25 8     34%   25 1011.42        
Aug 19 05:40 SW 6   Clear   25 8     33%   25 1011.42        
Aug 19 05:30 SW 3   Clear   25 9     37%   24 1011.31        
Aug 19 05:20 WSW 3   Clear   25 9     37%   24 1011.31        
Aug 19 05:10 ESE 1   Clear   25 9     36%   25 1011.31        
Aug 19 05:00 ESE 2   Clear   26 9     34%   25 1011.21        
Aug 19 04:50 S 2   Clear   26 9     34%   25 1011.11        
Aug 19 04:40 ESE 3   Clear   26 9     34%   25 1011        
Aug 19 04:30 ESE 5   Clear   26 9     34%   25 1011        
Aug 19 04:20 ENE 4   Clear   26 9     35%   25 1010.9        
Aug 19 04:10 WSW 1   Clear   26 9     34%   25 1011        
Aug 19 04:00 E 3   Clear   26 9     34%   26 1010.9        
Aug 19 03:50 E 5   Clear   26 9     34%   25 1010.8        
Aug 19 03:40 E 5   Clear   26 9     34%   26 1010.8        
Aug 19 03:30 E 5   Clear   26 9     34%   26 1010.7        
Aug 19 03:20 E 4   Clear   26 9     33%   26 1010.7        
Aug 19 03:10 E 3   Clear   27 8     31%   27 1010.7        
Aug 19 03:00 E 5   Clear   27 9     33%   26 1010.7        
Aug 19 02:50 E 6   Clear   27 8     32%   26 1010.59        
Aug 19 02:40 E 4   Clear   26 9     34%   26 1010.59        
Aug 19 02:30 E 9   Clear   27 10     34%   26 1010.59        
Aug 19 02:20 E 9   Clear   28 9     30%   27 1010.59        
Aug 19 02:10 SE 7   Clear   30 5     20%   28 1010.7        
Aug 19 02:00 SSW 19   Clear   32        %     1010.49        
Aug 19 01:50 SSW 20   Clear   31        %     1010.49        
Aug 19 01:40 SW 11   Clear   29 1     16%   28 1010.59        
Aug 19 01:30 SW 6   Clear   27 8     31%   26 1010.7        
Aug 19 01:20 SW 4   Clear   26 10     35%   26 1010.8        
Aug 19 01:10 W 2   Clear   27 10     34%   27 1010.9        
Aug 19 01:00 E 4   Clear   27 10     33%   27 1010.9        
Aug 19 00:50 ESE 7   Clear   27 10     33%   27 1010.8        
Aug 19 00:40 NE 5   Clear   28 10     32%   27 1010.59        
Aug 19 00:30 S 9   Clear   30 5     21%   28 1010.59        
Aug 19 00:20 NNE 3   Clear   28 9     31%   27 1010.59        
Aug 19 00:10 E 4   Clear   28 9     31%   27 1010.59        
Aug 19 00:00 ENE 3   Clear   28 10     31%   27 1010.59        
Aug 18 23:50 E 4   Clear   29 9     30%   28 1010.7        
Aug 18 23:40 ESE 5   Clear   29 9     30%   28 1010.7        
Aug 18 23:30 E 6   Clear   29 9     30%   28 1010.8        
Aug 18 23:20 NE 6   Clear   29 9     28%   28 1010.8        
Aug 18 23:10 NE 8   Clear   30 7     24%   29 1010.7        
Aug 18 23:00 NE 6   Clear   31 8     24%   29 1010.59        
Aug 18 22:50 SW 7   Clear   32 4     17%   30 1010.59        
Aug 18 22:40 SSW 14   Clear   33 3     16%   30 1010.49        
Aug 18 22:30 SSW 15   Clear   33 4     16%   31 1010.49        
Aug 18 22:20 SSW 14   Clear   33 4     16%   31 1010.49        
Aug 18 22:10 SSW 11   Clear   33 4     16%   31 1010.49        
Aug 18 22:00 SSW 11   Clear   33 4     16%   31 1010.39        
Aug 18 21:50 SW 12   Clear   33 4     16%   31 1010.39        
Aug 18 21:40 SSW 15   Clear   33 4     16%   31 1010.18        
Aug 18 21:30 SSW 15   Clear   33 4     16%   31 1010.08        
Aug 18 21:20 SW 13   Clear   33 4     16%   31 1009.98        
Aug 18 21:10 SSW 13   Clear   34 4     16%   31 1009.98        
Aug 18 21:00 SSW 9   Clear   34 4     16%   31 1009.87        
Aug 18 20:50 W 9   Clear   33 4     16%   31 1009.87        
Aug 18 20:40     Clear   33 5     17%   31 1009.77        
Aug 18 20:30     Clear   34 5     17%   31 1009.67        
Aug 18 20:20     Clear   34 5     17%   32 1009.56        
Aug 18 20:10 W 18   Clear   34 6     17%   32 1009.56        
Aug 18 20:00 W 16   Clear   35 5     16%   32 1009.36        
Aug 18 19:50 W 17   Clear   35 4     15%   33 1009.26        
Aug 18 19:40 SW 12   Clear   36 3     13%   33 1009.15        
Aug 18 19:30 SW 10   Clear   36 3     13%   33 1008.95        
Aug 18 19:20 E 3   Clear   36 1     11%   33 1008.84        
Aug 18 19:10 NE 5   Clear   36 0     10%   33 1008.84        
Aug 18 19:00 NE 6   Clear   36 0     10%   33 1008.74        
Aug 18 18:50 E 4   Clear   36 1     11%   33 1008.64        
Aug 18 18:40 E 4   Clear   37 1     11%   34 1008.64        
Aug 18 18:30 ENE 8   Clear   37 0     10%   34 1008.64        
Aug 18 18:20 NE 8   Clear   38 1     10%   35 1008.64        
Aug 18 18:10 ENE 8   Clear   39 2     10%   35 1008.64        
Aug 18 18:00 NNE 6   Clear   39 1     9%   36 1008.74        
Aug 18 17:50 N 9   Clear   39 0     9%   35 1008.74        
Aug 18 17:40 NE 7   Clear   39 0     9%   35 1008.74        
Aug 18 17:30 E 10   Clear   39 0     9%   35 1008.74        
Aug 18 17:20 E 6   Clear   40 1     9%   36 1008.74        
Aug 18 17:10 SE 3   Clear   39 0     9%   36 1008.84        
Aug 18 17:00 ESE 6   Clear   39 0     9%   35 1008.84        
Aug 18 16:30 E 9   Clear   38 0     9%   35 1009.05        
Aug 18 16:20 E 8   Clear   38 0     9%   35 1009.15        
Aug 18 16:10 ENE 11   Clear   38 0     9%   35 1009.05        
Aug 18 16:00 E 9   Clear   39 0     9%   35 1009.15        
Aug 18 15:50 E 8   Clear   39 0     9%   35 1009.15        
Aug 18 15:40 ESE 9   Clear   38 0     9%   35 1009.36        
Aug 18 15:30 E 5   Clear   38 0     9%   35 1009.46        
Aug 18 15:20 ESE 10   Clear   38 1     10%   35 1009.56        
Aug 18 15:10 ENE 6   Clear   38 1     10%   35 1009.67        
Aug 18 15:00 E 9   Clear   38 2     11%   35 1009.87        
Aug 18 14:50 E 7   Clear   38 1     10%   35 1010.08        
Aug 18 14:40 SE 7   Clear   38 1     10%   35 1010.28        
Aug 18 14:30 E 8   Clear   38 1     10%   35 1010.39        
Aug 18 14:20 E 7   Clear   38 1     10%   34 1010.49        
Aug 18 14:10 E 10   Clear   37 1     10%   34 1010.59        
Aug 18 14:00 ENE 8   Clear   37 2     11%   34 1010.7        
Aug 18 13:40 E 11   Clear   37 3     12%   34 1010.9        
Aug 18 13:30 ESE 9   Clear   36 2     12%   34 1011        
Aug 18 13:20 E 6   Clear   37 3     12%   34 1011        
Aug 18 13:10 ESE 7   Clear   36 3     13%   34 1011.21        
Aug 18 13:00 ENE 7   Clear   37 4     13%   34 1011.21        
Aug 18 12:40 E 9   Clear   36 3     13%   33 1011.42        
Aug 18 12:30 E 6   Clear   36 4     14%   33 1011.42        
Aug 18 12:20 E 8   Clear   36 3     13%   33 1011.62        
Aug 18 12:10 NE 9   Clear   36 2     12%   33 1011.62        
Aug 18 12:00 E 9   Clear   36 2     12%   33 1011.73        
Aug 18 11:50 ESE 7   Clear   35 0     11%   32 1011.73        
Aug 18 11:40 E 10   Clear   35 1     12%   32 1011.73        
Aug 18 11:30 E 8   Clear   35 1     12%   32 1011.73        
Aug 18 11:20 ENE 9   Clear   35 1     12%   32 1011.73        
Aug 18 11:10 NNE 8   Clear   35 3     14%   32 1011.73        
Aug 18 11:00 N 8   Clear   34 3     14%   32 1011.73        
Notice The following observation data may not be complete
Aug 18 10:50     Clear            %              
Aug 18 10:40 NNE 8   Clear   34 3     14%   32 1011.83        
Aug 18 10:30 N 7   Clear   34 3     15%   31 1011.83        
Aug 18 10:20 NE 8   Clear   33 4     16%   31 1011.73        
Aug 18 10:10 NE 7   Clear   33 4     16%   31 1011.73        
Aug 18 10:00 NNE 6   Clear   33 4     16%   30 1011.62        
Aug 18 09:50 NNE 6   Clear   33 3     16%   30 1011.52        
Aug 18 09:40 NE 5   Clear   33 3     16%   30 1011.42        
Aug 18 09:30 NE 6   Clear   32 4     17%   30 1011.42        
Aug 18 09:20 NNE 5   Clear   32 4     18%   30 1011.31        
Aug 18 09:10 NE 5   Clear   31 6     20%   29 1011.21        
Aug 18 09:00 NNE 5   Clear   31 6     21%   29 1011.21        
Aug 18 08:50 NNE 6   Clear   30 6     21%   29 1011.11        
Aug 18 08:40 NE 5   Clear   30 6     22%   28 1011.11        
Aug 18 08:30 NE 7   Clear   30 6     21%   28 1011        
Aug 18 08:20 NE 6   Clear   32 4     17%   29 1010.9        
Aug 18 08:10 NNE 4   Clear   31 4     18%   29 1010.8        
Aug 18 08:00 NE 6   Clear   31 4     18%   29 1010.7        
Notice The following observation data may not be complete
Aug 18 07:50 SSE 2   Clear     3      %     1010.59        
Notice The following observation data may not be complete
Aug 18 07:40 SE 2   Clear     4      %     1010.39        
Notice The following observation data may not be complete
Aug 18 07:30 NNE 2   Clear     4      %     1010.28        
Notice The following observation data may not be complete
Aug 18 07:20 NNE 1   Clear     4      %     1010.18        
Aug 18 07:10 ESE 2   Clear   26 4     25%   25 1010.18        
Aug 18 07:00 W 1   Clear   24 5     28%   24 1009.98        
Aug 18 06:50 SW 1   Clear   24 5     29%   24 1009.98        
Aug 18 06:40 WSW 2   Clear   24 5     29%   23 1009.87        
Aug 18 06:30 Calm   Clear   24 5     30%   23 1009.67        
Aug 18 06:20 W 2   Clear   24 6     30%   24 1009.56        
Aug 18 06:10 S 2   Clear   25 6     29%   24 1009.46        
Aug 18 06:00 ENE 2   Clear   25 6     29%   24 1009.26        
Aug 18 05:50 ESE 3   Clear   25 6     29%   24 1009.15        
Aug 18 05:40 E 3   Clear   25 6     29%   25 1008.95        
Aug 18 05:30 E 7   Clear   26 6     28%   25 1008.74        
Aug 18 05:20 ENE 9   Clear   26 6     27%   25 1008.64        
Aug 18 05:10 SE 8   Clear   28 3     20%   27 1008.53        
Aug 18 05:00 SSW 8   Clear   30        %     1008.53        
Aug 18 04:50 SSW 14   Clear   30        %     1008.33        
Aug 18 04:40 SW 11   Clear   30        %     1008.33        
Notice The following observation data may not be complete
Aug 18 04:30 SW 11   Clear            %     1008.33        
Aug 18 04:00 WSW 19   Clear   31        %     1008.43        
May 15 09:50 N 8   Clear   25 6     31%   24 1012.55        
May 15 09:20 N 5   Clear   24 6     32%   23 1012.45        
May 15 05:00 Calm   Clear   17 8     55%     1009.67        
May 14 23:50 NE 5   Clear   21 7     40%     1009.77        
May 14 18:50 N 7   Clear   27 6     25%   26 1008.23        
May 14 18:00 NNW 12   Clear   29 3     19%   28 1008.02        
May 14 16:20 N 7   Clear   30        %     1008.64        
May 14 15:50 NNW 9   Clear   30 -3     12%   28 1008.84        
May 14 14:30 NE 8   Clear   29 -2     13%   27 1009.98        
May 14 10:40 N 10   Clear   25 5     27%   24 1011.42        
May 14 09:30 N 6   Clear   24 4     27%   23 1011.21        
May 14 09:10 N 6   Clear   23 4     30%   22 1011.21        
May 14 09:00 N 6   Clear   22 5     33%   21 1011.21        
May 14 06:30 NE 4   Clear   15 6     56%     1009.98        
May 14 03:30 NNE 4   Clear   16 8     56%     1009.46        
May 14 00:40 Calm   Clear   18 7     47%     1009.77        
May 13 18:30 NNW 12   Clear   26 5     26%   25 1009.26        
May 13 16:50 NNW 9   Clear   27 4     23%   26 1009.56        
May 13 16:00 NNW 9   Clear   26 4     25%   25 1009.77        
May 13 12:40 NE 11   Clear   25 5     27%   24          
May 13 07:40 NNW 4   Clear   18 6     44%     1011.21        
Notice The following observation data may not be complete
May 13 07:20     Clear            %              
May 13 07:10 NNE 5   Clear   19 6     43%     1010.7        
May 13 03:00 Calm   Clear   16 6     50%     1009.26        
May 13 02:10 NNE 5   Clear   17 5     44%     1008.64        
May 12 16:00 NNW 12   Clear   26 4     25%   25 1007.92        
May 12 12:10 NNW 11   Clear   24 5     29%   23 1009.56        
May 12 11:40 N 9   Clear   23 5     31%   23 1009.67        
May 12 00:40     Clear   19 1     31%     1004.01        
May 11 23:10 W 11   Clear   19 5     40%     1004.21        
May 11 22:30 WSW 20   Clear   19 2     32%     1004.31        
May 11 22:00     Clear   19 3     36%              
May 11 18:00     Clear   27 3     21%   26 1002.05        
Notice The following observation data may not be complete
May 11 11:20     Clear            %